This is the latest recevied weather packets stored in our database for station/object SY3EBK-13. If no packets are shown the sender has not sent any weather packets the latest 10 day(s).
| Time | Temp. | Humidity | Pressure | Rain* | Wind** | Luminosity | Snow |
|---|---|---|---|---|---|---|---|
| 1777777828 | 4.44° C | 62% | 913 hPa | - | 0 m/s | - | - |
| 1777776928 | 3.89° C | 64% | 913.2 hPa | - | 0 m/s | - | - |
| 1777776028 | 3.89° C | 64% | 913.1 hPa | - | 0 m/s | - | - |
| 1777775128 | 3.33° C | 65% | 913.3 hPa | - | 0 m/s | - | - |
| 1777774228 | 3.89° C | 62% | 913.2 hPa | - | 0 m/s | - | - |
| 1777773328 | 4.44° C | 62% | 913.4 hPa | - | 0 m/s | - | - |
| 1777770628 | 4.44° C | 62% | 913.8 hPa | - | 0 m/s | - | - |
| 1777767028 | 3.89° C | 61% | 914.1 hPa | - | 0 m/s | - | - |
| 1777766128 | 3.89° C | 60% | 914.2 hPa | - | 0 m/s | - | - |
| 1777761628 | 3.89° C | 60% | 914.9 hPa | - | 0 m/s | - | - |
| 1777760728 | 3.89° C | 60% | 915.1 hPa | - | 0 m/s | - | - |
| 1777759828 | 3.89° C | 61% | 915.2 hPa | - | 0 m/s | - | - |
| 1777758928 | 3.89° C | 63% | 915.2 hPa | - | 0 m/s | - | - |
| 1777757128 | 4.44° C | 61% | 915.2 hPa | - | 0 m/s | - | - |
| 1777756228 | 4.44° C | 59% | 915.3 hPa | - | 0 m/s | - | - |
| 1777753528 | 5.56° C | 54% | 915.3 hPa | - | 0 m/s | - | - |
| 1777752628 | 5.56° C | 53% | 915.2 hPa | - | 0 m/s | - | - |
| 1777751728 | 5.56° C | 52% | 915 hPa | - | 0 m/s | - | - |
| 1777749928 | 5.56° C | 51% | 914.9 hPa | - | 0 m/s | - | - |
| 1777749028 | 5.56° C | 52% | 914.9 hPa | - | 0 m/s | - | - |
| 1777748128 | 5.56° C | 52% | 914.8 hPa | - | 0 m/s | - | - |
| 1777746328 | 5.56° C | 52% | 914.7 hPa | - | 0 m/s | - | - |
| 1777745428 | 6.11° C | 51% | 914.5 hPa | - | 0 m/s | - | - |
| 1777744528 | 6.11° C | 51% | 914.3 hPa | - | 0 m/s | - | - |
| 1777742728 | 6.67° C | 50% | 914.2 hPa | - | 0 m/s | - | - |
* Rain since midnight (hover to see other rain measurements)
** Current wind speed in m/s (hover to see current wind gust speed)